Terminal Aerodrome Forecast
Issued by NWS

Home | Current Version | Previous Version | Text Only | Print | Product List | Glossary On
Versions: 1 2 3 4 5 6 7 8 9 10 11 12 13 14 15 16 17 18 19 20 21 22 23 24 25 26 27
000
FTUS46 KOTX 291740
TAFSFF
TAF
KSFF 291740Z 2918/3018 VRB04KT P6SM BKN090
     FM292000 22007KT P6SM FEW050 SCT100
     FM300600 08005KT P6SM BKN100
     FM301000 VRB04KT P6SM SCT250=

USA.gov is the U.S. government's official web portal to all federal, state and local government web resources and services.